Briefing drone pour La guerche-sur-l'aubois

Rechercher une autre localisation

Conditions de vol :


Nous sommes le : Mercredi 19 janvier 2022
Il est 04:07 UTC (05:07 LT)

Lever de soleil : 07:00 UTC (08:00 LT)
Coucher de soleil : 16:57 UTC (17:57 LT)

Météo

L'essentiel des conditions de vol

VIGILANCE MÉTÉO FRANCE - Cher (18)
Vigilance Jaune : Neige-verglas
CARTE TEMSI
CARTES DES FRONTS
METAR de LFQG
LFQG 181800Z AUTO 17003KT 140V200 9999 OVC029 04/02 Q1032

Date d'émission: 18/01/2022
Heure d'émission: 18:00 UTC
Vent: 170° (variable du 140° au 200°) pour 3 KT (6 km/h)
Visibilité horizontale: > 10 km
Plafond :
- Couvert à 2900ft (884m)
Température: 4 °C
Point de rosée: 2 °C
Humidité: 87%
Pression (QNH): 1032 hPa
Prévision 24h pour Nevers (10 km)
Vent : 257° pour 2 KT (7 km/h)
Temperature Maxi: 3 °C
Temperature Min: 3 °C
Humidité : 97%
Condition : Légère pluie



Warning: count(): Parameter must be an array or an object that implements Countable in /homepages/6/d509196549/htdocs/droneoxygene/briefing.php on line 743
WEBCAM POUR LA GUERCHE-SUR-L'AUBOIS

Réglementation

Voler en sécurité

CARTES AERONAUTIQUE 1/500.000
CARTES VAC (LFQG)
SUP AIP




Chargement des AIP...
NOTAM (LA GUERCHE-SUR-L'AUBOIS + Terrain à proximité / FIR )




Chargement des NOTAMS...
CONTACT PREFECTURE 18


Avertissement : Les données mises à disposition sont indicatives. Oxygène Drone ne pourra être tenu responsable de dégâts causés aux biens et aux personnes.